Time;durP1;ratioP1;P1;durP2;ratioP2;P2;SDS_P1;SDS_P2;PMS_P1;PMS_P2;Temp;Humidity;BMP_temperature;BMP_pressure;BME280_temperature;BME280_humidity;BME280_pressure;Samples;Min_cycle;Max_cycle;Signal;HPM_P1;HPM_P2
2023/05/14 00:02:07;;;;;;;24.00;15.80;;;;;;;8.91;51.40;100826.27;131005;1251;107576;-76
2023/05/14 00:05:12;;;;;;;25.50;16.10;;;;;;;8.87;51.35;100818.41;131215;1256;107492;-76
2023/05/14 00:08:18;;;;;;;24.90;15.60;;;;;;;8.86;51.63;100819.45;131145;1256;107541;-76
2023/05/14 00:11:23;;;;;;;29.20;17.70;;;;;;;8.83;51.64;100820.70;131220;1256;107266;-76
2023/05/14 00:14:29;;;;;;;23.50;15.80;;;;;;;8.81;51.92;100816.44;131168;1256;107501;-76
2023/05/14 00:17:34;;;;;;;25.30;15.90;;;;;;;8.80;51.91;100815.98;131003;1251;107578;-76
2023/05/14 00:20:40;;;;;;;24.00;15.30;;;;;;;8.78;51.93;100816.55;131235;1253;107400;-76
2023/05/14 00:23:45;;;;;;;25.90;15.50;;;;;;;8.75;52.05;100816.36;131223;1255;105922;-76
2023/05/14 00:26:51;;;;;;;27.10;16.00;;;;;;;8.73;52.05;100811.95;131270;1252;107973;-74
2023/05/14 00:29:56;;;;;;;22.50;15.20;;;;;;;8.71;52.24;100812.79;131239;1256;107534;-75
2023/05/14 00:33:03;;;;;;;25.30;15.50;;;;;;;8.67;52.15;100813.67;131088;1256;107370;-75
2023/05/14 00:36:10;;;;;;;24.90;15.40;;;;;;;8.64;52.36;100815.67;131042;1257;107404;-75
2023/05/14 00:39:15;;;;;;;22.40;14.90;;;;;;;8.64;52.39;100813.69;131113;1255;106680;-76
2023/05/14 00:42:21;;;;;;;23.40;15.50;;;;;;;8.65;52.51;100810.30;130930;1260;107536;-76
2023/05/14 00:45:27;;;;;;;28.90;15.50;;;;;;;8.63;52.58;100810.94;131137;1256;107623;-77
2023/05/14 00:48:33;;;;;;;25.70;15.80;;;;;;;8.63;52.69;100814.75;130900;1258;105700;-76
2023/05/14 00:51:40;;;;;;;24.70;15.60;;;;;;;8.57;52.74;100811.80;131009;1253;107336;-76
2023/05/14 00:54:47;;;;;;;28.60;15.50;;;;;;;8.53;52.80;100808.80;131000;1264;106522;-76
2023/05/14 00:57:53;;;;;;;23.50;15.20;;;;;;;8.52;52.99;100808.86;131059;1256;106457;-76
2023/05/14 01:00:59;;;;;;;24.80;15.70;;;;;;;8.49;53.02;100809.84;131031;1257;107505;-76
2023/05/14 01:04:05;;;;;;;23.10;14.90;;;;;;;8.47;53.11;100813.23;130923;1256;107475;-76
2023/05/14 01:07:20;;;;;;;22.80;15.70;;;;;;;8.41;53.09;100813.81;130844;1259;107253;-76
2023/05/14 01:10:32;;;;;;;23.70;15.40;;;;;;;8.36;53.07;100810.71;131159;1256;107559;-77
2023/05/14 01:13:47;;;;;;;24.30;15.80;;;;;;;8.27;53.28;100812.14;131001;1258;107465;-76
2023/05/14 01:16:56;;;;;;;25.70;15.80;;;;;;;8.24;53.49;100809.87;131030;1255;107539;-77
2023/05/14 01:20:02;;;;;;;25.60;15.20;;;;;;;8.22;53.51;100810.02;131000;1256;107259;-75
2023/05/14 01:23:08;;;;;;;25.30;15.20;;;;;;;8.18;53.64;100809.14;131029;1256;107443;-75
2023/05/14 01:26:13;;;;;;;23.00;15.50;;;;;;;8.13;53.72;100802.96;131134;1256;107554;-76
2023/05/14 01:29:22;;;;;;;25.10;15.50;;;;;;;8.10;53.90;100801.63;130915;1256;107516;-76
2023/05/14 01:32:30;;;;;;;23.70;15.40;;;;;;;8.06;54.01;100795.70;131072;1251;107408;-74
2023/05/14 01:35:35;;;;;;;26.20;16.30;;;;;;;8.03;53.90;100799.52;130854;1256;162485;-74
2023/05/14 01:38:44;;;;;;;24.30;15.20;;;;;;;8.00;54.13;100801.39;130926;1266;107530;-76
2023/05/14 01:41:51;;;;;;;23.30;14.90;;;;;;;7.86;54.18;100798.62;131100;1261;107282;-76
2023/05/14 01:44:58;;;;;;;24.70;15.10;;;;;;;7.75;54.38;100795.92;131338;1257;107514;-76
2023/05/14 01:48:03;;;;;;;25.50;15.00;;;;;;;7.69;54.59;100787.16;130902;1257;106259;-76
2023/05/14 01:51:09;;;;;;;22.80;14.50;;;;;;;7.71;54.43;100784.40;131162;1264;107454;-76
2023/05/14 01:54:14;;;;;;;26.00;15.20;;;;;;;7.70;54.41;100779.86;131018;1250;107501;-76
2023/05/14 01:57:20;;;;;;;24.20;15.30;;;;;;;7.67;54.45;100777.24;131079;1256;107261;-76
2023/05/14 02:00:26;;;;;;;23.20;14.80;;;;;;;7.64;54.69;100776.59;130970;1250;107460;-75
2023/05/14 02:03:31;;;;;;;22.00;14.80;;;;;;;7.63;54.72;100777.91;131076;1264;106786;-76
2023/05/14 02:06:37;;;;;;;22.40;14.40;;;;;;;7.55;54.78;100778.88;130913;1256;107494;-75
2023/05/14 02:09:43;;;;;;;22.00;14.00;;;;;;;7.51;54.69;100777.65;131005;1256;107264;-75
2023/05/14 02:12:48;;;;;;;22.10;14.00;;;;;;;7.45;54.89;100776.63;131017;1257;107555;-75
2023/05/14 02:15:54;;;;;;;22.50;14.50;;;;;;;7.45;54.89;100772.97;131196;1253;105625;-75
2023/05/14 02:19:00;;;;;;;21.70;14.00;;;;;;;7.44;54.99;100771.45;130874;1256;107499;-75
2023/05/14 02:22:05;;;;;;;22.60;13.70;;;;;;;7.41;55.03;100774.45;130892;1258;107494;-76
2023/05/14 02:25:12;;;;;;;19.20;13.10;;;;;;;7.40;55.15;100771.95;131006;1254;107445;-76
2023/05/14 02:28:18;;;;;;;22.70;14.30;;;;;;;7.40;55.30;100776.87;130990;1256;107506;-76
2023/05/14 02:31:23;;;;;;;19.80;12.90;;;;;;;7.38;55.32;100772.23;131098;1254;107390;-75
2023/05/14 02:34:32;;;;;;;19.70;13.80;;;;;;;7.37;55.42;100774.63;131198;1263;107443;-77
2023/05/14 02:37:38;;;;;;;21.80;13.40;;;;;;;7.36;55.34;100774.73;131403;1254;107578;-75
2023/05/14 02:40:43;;;;;;;20.50;13.30;;;;;;;7.31;55.82;100766.77;131208;1254;106734;-75
2023/05/14 02:43:49;;;;;;;20.80;13.00;;;;;;;7.27;55.76;100765.48;131186;1254;107521;-75
2023/05/14 02:46:55;;;;;;;18.90;13.70;;;;;;;7.30;55.91;100765.62;131273;1256;107353;-76
2023/05/14 02:50:01;;;;;;;20.80;13.10;;;;;;;7.31;55.89;100758.10;131296;1266;107508;-76
2023/05/14 02:53:07;;;;;;;20.70;14.20;;;;;;;7.33;55.86;100756.02;131185;1258;107462;-76
2023/05/14 02:56:13;;;;;;;21.00;13.10;;;;;;;7.34;56.12;100756.28;131230;1257;107395;-75
2023/05/14 02:59:18;;;;;;;18.50;13.30;;;;;;;7.34;55.91;100759.83;131200;1256;106049;-75
2023/05/14 03:02:24;;;;;;;18.90;13.10;;;;;;;7.32;55.61;100757.48;130949;1259;107538;-75
2023/05/14 03:05:29;;;;;;;20.30;13.70;;;;;;;7.27;56.34;100751.30;131442;1263;107520;-76
2023/05/14 03:08:35;;;;;;;18.50;13.00;;;;;;;7.24;56.32;100752.77;131305;1250;107421;-76
2023/05/14 03:11:41;;;;;;;19.70;13.70;;;;;;;7.28;56.35;100753.89;131170;1257;107614;-75
2023/05/14 03:14:46;;;;;;;20.80;13.80;;;;;;;7.29;56.14;100752.44;131292;1257;107569;-76
2023/05/14 03:17:52;;;;;;;18.40;13.30;;;;;;;7.31;56.44;100748.22;131428;1263;109285;-75
2023/05/14 03:20:58;;;;;;;21.90;14.40;;;;;;;7.35;56.33;100742.07;131139;1254;107433;-76
2023/05/14 03:24:03;;;;;;;23.10;15.60;;;;;;;7.38;56.41;100747.86;130924;1262;107552;-76
2023/05/14 03:27:09;;;;;;;25.30;15.50;;;;;;;7.41;56.14;100744.41;131102;1254;107522;-76
2023/05/14 03:30:15;;;;;;;24.30;15.80;;;;;;;7.44;56.42;100741.37;131088;1257;107515;-74
2023/05/14 03:33:21;;;;;;;24.90;15.40;;;;;;;7.43;56.61;100736.23;131141;1259;108681;-74
2023/05/14 03:36:27;;;;;;;24.50;16.10;;;;;;;7.44;56.61;100730.32;131199;1257;107149;-74
2023/05/14 03:39:32;;;;;;;23.40;15.60;;;;;;;7.51;56.83;100727.36;131142;1251;107849;-74
2023/05/14 03:42:38;;;;;;;22.00;14.70;;;;;;;7.63;56.99;100725.47;131152;1266;107529;-75
2023/05/14 03:45:43;;;;;;;21.10;15.60;;;;;;;7.83;57.30;100726.95;130987;1257;107504;-75
2023/05/14 03:48:49;;;;;;;20.60;14.70;;;;;;;8.06;57.11;100733.39;131268;1255;107265;-75
2023/05/14 03:51:56;;;;;;;20.10;14.10;;;;;;;8.26;57.11;100730.10;131213;1251;107379;-75
2023/05/14 03:55:01;;;;;;;19.40;14.30;;;;;;;8.44;57.32;100726.90;131070;1253;108702;-75
2023/05/14 03:58:12;;;;;;;22.00;15.80;;;;;;;8.55;57.35;100723.66;130975;1259;107679;-75
2023/05/14 04:01:18;;;;;;;20.90;13.60;;;;;;;8.82;57.41;100719.50;131284;1258;106803;-76
2023/05/14 04:04:23;;;;;;;21.50;13.40;;;;;;;9.10;57.43;100716.24;131167;1257;108549;-75
2023/05/14 04:07:29;;;;;;;19.10;13.10;;;;;;;9.38;57.49;100719.23;131089;1261;106587;-77
2023/05/14 04:10:35;;;;;;;17.60;12.90;;;;;;;9.71;57.29;100719.96;131276;1257;106414;-75
2023/05/14 04:13:40;;;;;;;18.60;13.70;;;;;;;10.03;57.46;100720.11;131072;1255;107589;-75
2023/05/14 04:16:46;;;;;;;21.30;13.60;;;;;;;10.34;57.28;100725.36;131202;1254;107553;-76
2023/05/14 04:19:52;;;;;;;17.50;12.80;;;;;;;10.62;56.98;100725.64;131057;1253;106638;-76
2023/05/14 04:22:57;;;;;;;18.20;12.60;;;;;;;10.87;57.16;100724.90;131332;1252;108423;-75
2023/05/14 04:26:03;;;;;;;16.90;12.90;;;;;;;11.10;57.17;100726.48;131173;1258;105555;-76
2023/05/14 04:29:09;;;;;;;16.60;12.60;;;;;;;11.37;56.86;100720.05;131229;1251;107301;-76
2023/05/14 04:32:15;;;;;;;21.40;14.10;;;;;;;11.57;56.85;100718.27;131142;1263;107510;-76
2023/05/14 04:35:20;;;;;;;15.60;12.60;;;;;;;11.77;57.44;100718.19;131082;1251;108115;-76
2023/05/14 04:38:27;;;;;;;16.30;12.20;;;;;;;12.02;57.21;100723.71;131105;1257;107551;-76
2023/05/14 04:41:32;;;;;;;14.90;12.50;;;;;;;12.25;57.15;100723.95;131077;1256;106078;-77
2023/05/14 04:44:38;;;;;;;16.50;12.70;;;;;;;12.42;57.34;100710.83;130928;1253;108921;-76
2023/05/14 04:47:44;;;;;;;16.90;13.00;;;;;;;12.69;57.28;100714.42;130964;1257;107241;-76
2023/05/14 04:50:50;;;;;;;26.90;18.60;;;;;;;12.93;57.39;100714.13;130949;1261;107269;-76
2023/05/14 04:53:56;;;;;;;25.60;17.30;;;;;;;13.14;57.27;100714.11;130984;1254;105586;-76
2023/05/14 04:57:02;;;;;;;26.50;18.10;;;;;;;13.34;57.09;100714.56;130963;1257;107461;-76
2023/05/14 05:00:10;;;;;;;28.50;18.30;;;;;;;13.54;56.79;100715.28;131002;1256;107579;-76
2023/05/14 05:03:15;;;;;;;23.60;16.50;;;;;;;13.72;56.96;100709.30;131238;1253;107414;-76
2023/05/14 05:06:21;;;;;;;22.00;14.60;;;;;;;13.90;56.42;100710.48;131131;1252;107543;-77
2023/05/14 05:09:27;;;;;;;20.50;14.70;;;;;;;14.08;56.60;100711.98;131134;1251;107214;-76
2023/05/14 05:12:34;;;;;;;16.40;12.60;;;;;;;14.25;56.78;100706.88;131191;1251;107539;-76
2023/05/14 05:15:39;;;;;;;16.00;11.40;;;;;;;14.44;56.48;100710.00;130829;1250;109254;-78
2023/05/14 05:18:45;;;;;;;16.90;11.60;;;;;;;14.63;56.49;100708.77;130924;1257;107379;-77
2023/05/14 05:21:50;;;;;;;15.00;11.60;;;;;;;14.79;56.53;100713.09;130960;1256;107543;-76
2023/05/14 05:24:56;;;;;;;15.60;10.40;;;;;;;14.97;56.53;100705.36;130911;1256;107164;-76
2023/05/14 05:28:01;;;;;;;15.30;11.40;;;;;;;15.12;56.08;100699.92;130982;1257;107549;-76
2023/05/14 05:31:07;;;;;;;17.20;12.70;;;;;;;15.23;55.77;100698.71;130874;1257;107539;-76
2023/05/14 05:34:13;;;;;;;14.90;12.20;;;;;;;15.39;56.00;100697.45;131147;1254;107248;-76
2023/05/14 05:37:19;;;;;;;12.70;10.60;;;;;;;15.52;55.92;100694.11;131164;1257;107517;-72
2023/05/14 05:40:24;;;;;;;15.40;10.70;;;;;;;15.65;55.42;100697.15;131219;1254;107344;-73
2023/05/14 05:43:30;;;;;;;13.20;10.20;;;;;;;15.77;55.17;100696.02;131134;1254;107131;-75
2023/05/14 05:46:36;;;;;;;11.90;9.10;;;;;;;15.87;55.16;100687.84;131168;1254;107502;-75
2023/05/14 05:49:41;;;;;;;9.90;7.50;;;;;;;15.97;54.68;100687.60;131076;1257;106819;-73
2023/05/14 05:52:47;;;;;;;8.50;6.70;;;;;;;16.06;54.22;100692.14;131135;1257;107414;-73
2023/05/14 05:55:52;;;;;;;9.70;7.00;;;;;;;16.14;54.28;100686.86;131185;1251;108501;-73
2023/05/14 05:58:58;;;;;;;8.50;6.50;;;;;;;16.24;54.18;100686.92;130984;1257;107265;-73
2023/05/14 06:02:05;;;;;;;10.00;6.10;;;;;;;16.35;54.00;100687.85;131140;1254;107507;-73
2023/05/14 06:05:11;;;;;;;7.90;5.90;;;;;;;16.44;53.65;100689.63;131228;1254;107528;-73
2023/05/14 06:08:17;;;;;;;9.30;6.10;;;;;;;16.51;53.37;100686.81;131091;1253;109329;-72
2023/05/14 06:11:22;;;;;;;7.60;5.50;;;;;;;16.60;53.31;100687.03;131183;1251;107499;-72
2023/05/14 06:14:28;;;;;;;8.60;6.70;;;;;;;16.68;53.18;100686.13;131059;1254;107466;-73
2023/05/14 06:17:33;;;;;;;9.40;6.30;;;;;;;16.72;53.18;100684.86;130999;1254;107514;-73
2023/05/14 06:20:40;;;;;;;7.00;5.70;;;;;;;16.79;53.39;100682.84;131024;1251;107584;-72
2023/05/14 06:23:45;;;;;;;10.20;5.60;;;;;;;16.85;52.76;100687.67;130990;1258;107523;-73
2023/05/14 06:26:51;;;;;;;7.60;6.00;;;;;;;16.91;52.73;100683.42;131247;1257;107301;-73
2023/05/14 06:29:56;;;;;;;7.30;5.90;;;;;;;16.97;52.58;100681.43;131210;1257;107519;-72
2023/05/14 06:33:02;;;;;;;6.80;5.60;;;;;;;17.02;52.37;100678.11;131221;1251;106654;-73
2023/05/14 06:36:09;;;;;;;8.40;5.40;;;;;;;17.09;52.43;100676.70;131315;1250;107250;-73
2023/05/14 06:39:15;;;;;;;6.60;5.10;;;;;;;17.15;51.89;100673.89;131134;1251;107742;-73
2023/05/14 06:42:20;;;;;;;8.80;5.20;;;;;;;17.23;51.93;100676.71;131073;1251;106537;-72
2023/05/14 06:45:26;;;;;;;6.20;4.80;;;;;;;17.33;51.79;100672.84;131156;1257;107599;-73
2023/05/14 06:48:32;;;;;;;6.70;4.50;;;;;;;17.41;51.39;100672.34;131349;1257;107822;-73
2023/05/14 06:51:39;;;;;;;6.50;3.80;;;;;;;17.49;50.68;100670.27;131048;1254;107615;-73
2023/05/14 06:54:45;;;;;;;7.60;3.70;;;;;;;17.58;49.43;100670.05;130982;1251;107373;-73
2023/05/14 06:57:50;;;;;;;4.50;3.60;;;;;;;17.66;49.30;100665.54;131246;1254;107796;-77
2023/05/14 07:00:56;;;;;;;5.40;3.90;;;;;;;17.71;48.96;100662.61;131083;1251;107483;-77
2023/05/14 07:04:01;;;;;;;4.70;3.60;;;;;;;17.79;48.97;100655.47;131099;1255;106785;-78
2023/05/14 07:07:09;;;;;;;6.80;3.60;;;;;;;17.88;48.64;100655.85;130960;1263;107483;-78
2023/05/14 07:10:14;;;;;;;6.40;3.50;;;;;;;17.97;48.08;100652.70;130936;1253;107372;-77
2023/05/14 07:13:20;;;;;;;4.00;3.20;;;;;;;18.05;47.67;100655.13;131019;1251;107517;-77
2023/05/14 07:16:26;;;;;;;5.20;3.40;;;;;;;18.12;47.57;100653.15;130946;1254;107500;-78
2023/05/14 07:19:31;;;;;;;4.80;3.40;;;;;;;18.19;47.03;100651.36;130989;1255;107247;-78
2023/05/14 07:22:37;;;;;;;6.50;3.70;;;;;;;18.26;47.15;100649.21;131011;1251;107515;-78
2023/05/14 07:25:42;;;;;;;5.40;4.10;;;;;;;18.34;46.58;100646.20;131013;1254;107487;-78
2023/05/14 07:28:47;;;;;;;5.20;3.60;;;;;;;18.43;46.91;100642.80;131108;1257;107504;-80
2023/05/14 07:31:53;;;;;;;5.90;3.70;;;;;;;18.51;46.38;100646.77;131135;1253;107548;-80
2023/05/14 07:34:59;;;;;;;6.30;3.70;;;;;;;18.59;46.26;100643.76;131257;1251;107220;-80
2023/05/14 07:38:05;;;;;;;5.30;3.90;;;;;;;18.69;46.16;100639.13;131193;1257;107540;-82
2023/05/14 07:41:11;;;;;;;7.00;3.40;;;;;;;18.78;46.14;100635.61;131154;1251;107560;-82
2023/05/14 07:44:16;;;;;;;7.70;3.60;;;;;;;18.86;45.20;100630.04;131311;1256;107274;-80
2023/05/14 07:47:34;;;;;;;3.70;3.10;;;;;;;18.92;44.57;100627.02;131282;1254;107480;-83
2023/05/14 07:50:46;;;;;;;5.70;3.90;;;;;;;18.99;45.24;100625.73;131190;1250;108533;-80
2023/05/14 07:54:01;;;;;;;4.50;3.40;;;;;;;19.08;44.24;100620.92;131221;1251;107624;-81
2023/05/14 07:57:10;;;;;;;4.40;3.10;;;;;;;19.11;43.75;100625.39;130970;1257;107332;-83
2023/05/14 08:00:24;;;;;;;6.90;3.30;;;;;;;19.06;42.59;100620.86;130822;1265;108302;-78
2023/05/14 08:03:31;;;;;;;4.50;3.20;;;;;;;19.02;43.11;100617.89;131092;1254;108585;-77
2023/05/14 08:06:36;;;;;;;5.90;3.60;;;;;;;19.06;43.06;100614.50;131109;1254;107435;-80
2023/05/14 08:09:42;;;;;;;4.60;3.30;;;;;;;19.15;43.09;100605.40;131255;1253;107348;-79
2023/05/14 08:12:47;;;;;;;7.10;3.50;;;;;;;19.36;43.02;100605.95;131275;1258;107397;-79
2023/05/14 08:15:53;;;;;;;5.10;3.10;;;;;;;19.58;43.13;100606.19;131275;1253;107544;-82
2023/05/14 08:18:58;;;;;;;6.10;4.20;;;;;;;19.81;42.64;100608.15;131371;1253;107539;-81
2023/05/14 08:22:04;;;;;;;5.80;3.40;;;;;;;19.91;41.69;100609.59;131102;1251;108224;-78
2023/05/14 08:25:10;;;;;;;6.10;3.60;;;;;;;19.96;41.62;100606.46;131129;1253;107552;-80
2023/05/14 08:28:16;;;;;;;4.80;3.50;;;;;;;19.98;41.02;100603.63;131392;1251;107246;-78
2023/05/14 08:31:22;;;;;;;6.30;3.40;;;;;;;20.01;41.88;100602.39;131183;1253;107487;-80
2023/05/14 08:34:28;;;;;;;9.30;3.80;;;;;;;20.07;41.15;100609.52;131225;1253;107507;-79
2023/05/14 08:37:33;;;;;;;4.20;3.50;;;;;;;20.11;41.44;100606.27;131066;1250;107570;-81
2023/05/14 08:40:39;;;;;;;7.80;3.70;;;;;;;20.12;40.77;100607.15;131387;1250;107487;-79
2023/05/14 08:43:52;;;;;;;6.60;3.70;;;;;;;20.16;41.06;100606.33;131321;1250;107519;-79
2023/05/14 08:46:58;;;;;;;4.40;3.50;;;;;;;20.22;41.24;100605.41;131086;1254;106524;-79
2023/05/14 08:50:06;;;;;;;6.30;4.20;;;;;;;20.29;40.90;100610.15;131062;1250;107503;-79
2023/05/14 08:53:12;;;;;;;5.60;3.70;;;;;;;20.35;40.62;100605.28;131022;1253;107908;-79
2023/05/14 08:56:20;;;;;;;6.60;3.40;;;;;;;20.43;40.57;100605.40;131057;1255;107505;-79
2023/05/14 08:59:26;;;;;;;6.30;3.60;;;;;;;20.51;40.33;100603.98;131065;1250;108418;-79
2023/05/14 09:02:33;;;;;;;4.80;3.40;;;;;;;20.60;40.32;100606.35;131047;1254;107564;-79
2023/05/14 09:05:39;;;;;;;5.30;3.40;;;;;;;20.63;39.99;100597.08;131244;1253;107579;-79
2023/05/14 09:08:45;;;;;;;9.90;3.60;;;;;;;20.70;40.05;100597.35;130965;1251;107620;-79
2023/05/14 09:11:51;;;;;;;5.80;3.40;;;;;;;20.75;39.84;100593.09;130961;1254;108115;-79
2023/05/14 09:14:57;;;;;;;5.50;3.20;;;;;;;20.81;39.53;100593.41;131260;1254;107525;-75
2023/05/14 09:18:04;;;;;;;6.30;3.20;;;;;;;20.84;38.87;100585.44;131434;1250;107476;-76
2023/05/14 09:21:10;;;;;;;7.90;3.20;;;;;;;20.85;38.79;100588.73;131376;1252;107555;-75
2023/05/14 09:24:22;;;;;;;4.70;3.40;;;;;;;20.86;39.08;100583.59;131277;1250;107556;-76
2023/05/14 09:27:31;;;;;;;6.60;3.60;;;;;;;20.86;38.85;100584.50;131192;1255;107653;-74
2023/05/14 09:30:37;;;;;;;8.40;3.30;;;;;;;20.90;38.52;100580.57;131061;1256;107517;-76
2023/05/14 09:33:43;;;;;;;5.90;3.20;;;;;;;20.94;38.26;100575.80;130992;1258;107401;-75
2023/05/14 09:36:48;;;;;;;5.40;3.30;;;;;;;21.02;38.37;100582.05;131054;1251;106407;-75
2023/05/14 09:39:54;;;;;;;4.30;2.80;;;;;;;21.09;38.10;100575.79;131414;1253;107244;-75
2023/05/14 09:43:00;;;;;;;4.40;3.00;;;;;;;21.16;38.17;100577.35;131154;1253;107524;-75
2023/05/14 09:46:06;;;;;;;6.50;2.90;;;;;;;21.21;37.27;100578.92;130931;1253;107305;-74
2023/05/14 09:49:12;;;;;;;4.20;2.90;;;;;;;21.26;37.51;100570.16;131008;1253;107249;-74
2023/05/14 09:52:19;;;;;;;5.10;2.90;;;;;;;21.35;37.16;100571.71;131053;1253;106516;-74
2023/05/14 09:55:26;;;;;;;6.90;3.00;;;;;;;21.35;36.46;100572.71;130902;1253;107600;-75
2023/05/14 09:58:32;;;;;;;6.40;3.00;;;;;;;21.40;36.74;100563.41;131073;1256;107558;-75
2023/05/14 10:01:37;;;;;;;4.40;3.00;;;;;;;21.45;36.36;100558.86;130984;1250;107527;-75
2023/05/14 10:04:44;;;;;;;6.80;2.80;;;;;;;21.52;36.79;100554.52;131027;1256;107359;-75
2023/05/14 10:07:51;;;;;;;6.30;3.00;;;;;;;21.63;36.93;100551.05;130980;1264;106776;-74
2023/05/14 10:10:59;;;;;;;4.60;2.70;;;;;;;21.62;36.04;100549.70;130943;1254;106568;-74
2023/05/14 10:14:08;;;;;;;5.60;2.70;;;;;;;21.64;36.73;100551.24;131096;1251;107250;-74
2023/05/14 10:17:17;;;;;;;4.10;2.90;;;;;;;21.64;36.42;100539.63;130997;1254;108722;-74
2023/05/14 10:20:25;;;;;;;4.50;2.80;;;;;;;21.64;36.76;100525.71;131019;1251;107302;-75
2023/05/14 10:23:31;;;;;;;5.80;3.10;;;;;;;21.65;36.66;100514.12;131070;1251;108158;-74
2023/05/14 10:26:39;;;;;;;4.50;2.90;;;;;;;21.64;36.57;100508.75;130965;1250;107375;-74
2023/05/14 10:29:54;;;;;;;4.40;2.80;;;;;;;21.67;36.49;100501.20;131043;1250;107586;-73
2023/05/14 10:33:15;;;;;;;4.80;2.80;;;;;;;21.67;36.68;100502.33;131015;1253;107540;-74
2023/05/14 10:36:22;;;;;;;4.00;2.90;;;;;;;21.72;36.41;100495.52;130986;1254;107558;-74
2023/05/14 10:39:42;;;;;;;6.50;2.90;;;;;;;21.70;36.18;100494.58;131015;1256;107600;-74
2023/05/14 10:42:49;;;;;;;4.80;2.40;;;;;;;21.63;35.85;100501.02;131141;1253;106734;-76
2023/05/14 10:45:55;;;;;;;3.60;2.50;;;;;;;21.63;35.85;100495.39;131018;1254;107500;-74
2023/05/14 10:49:01;;;;;;;4.50;3.00;;;;;;;21.70;36.03;100491.45;131333;1251;107350;-75
2023/05/14 10:52:10;;;;;;;3.80;2.70;;;;;;;21.77;35.94;100480.73;130999;1256;106912;-73
2023/05/14 10:55:17;;;;;;;6.40;2.80;;;;;;;21.79;35.32;100477.89;131049;1251;106522;-72
2023/05/14 10:58:23;;;;;;;5.50;2.60;;;;;;;21.78;35.27;100474.42;131076;1255;107613;-73
2023/05/14 11:01:31;;;;;;;5.10;2.70;;;;;;;21.78;35.19;100471.87;131192;1254;109069;-75
2023/05/14 11:04:40;;;;;;;4.70;2.70;;;;;;;21.76;34.88;100459.48;131312;1250;109794;-75
2023/05/14 11:07:48;;;;;;;5.20;2.60;;;;;;;21.73;34.82;100460.80;131217;1253;107448;-73
2023/05/14 11:10:54;;;;;;;5.20;3.30;;;;;;;21.67;34.02;100456.26;131124;1251;107509;-75
2023/05/14 11:14:00;;;;;;;4.00;2.60;;;;;;;21.62;34.28;100451.11;131207;1254;107509;-75
2023/05/14 11:17:06;;;;;;;4.60;2.70;;;;;;;21.61;34.75;100442.64;131155;1253;107421;-74
2023/05/14 11:20:15;;;;;;;4.80;2.60;;;;;;;21.66;34.62;100439.42;131218;1256;107540;-75
2023/05/14 11:23:25;;;;;;;6.50;2.70;;;;;;;21.71;34.72;100433.77;131117;1253;105989;-75
2023/05/14 11:26:31;;;;;;;4.80;2.70;;;;;;;21.78;34.27;100426.23;131084;1254;107448;-74
2023/05/14 11:29:37;;;;;;;5.40;2.60;;;;;;;21.81;34.55;100422.70;131183;1250;107532;-74
2023/05/14 11:32:45;;;;;;;7.50;2.60;;;;;;;21.89;34.59;100427.46;131171;1253;107443;-74
2023/05/14 11:35:51;;;;;;;3.90;2.50;;;;;;;21.92;34.40;100424.02;131158;1251;107261;-74
2023/05/14 11:38:57;;;;;;;4.70;2.50;;;;;;;21.95;34.42;100419.35;131110;1254;106721;-74
2023/05/14 11:42:10;;;;;;;3.40;2.60;;;;;;;21.94;34.08;100421.70;131225;1253;107571;-74
2023/05/14 11:45:26;;;;;;;3.00;2.30;;;;;;;21.93;34.12;100414.97;131195;1250;108110;-74
2023/05/14 11:48:35;;;;;;;4.50;2.70;;;;;;;21.97;34.08;100405.70;131229;1256;107538;-75
2023/05/14 11:51:40;;;;;;;4.00;2.60;;;;;;;22.05;34.47;100403.54;131035;1251;107558;-75
2023/05/14 11:54:48;;;;;;;3.30;2.60;;;;;;;22.13;34.00;100399.30;130986;1256;107465;-74
2023/05/14 11:57:54;;;;;;;5.50;2.70;;;;;;;22.19;33.75;100398.90;130882;1251;107319;-74
2023/05/14 12:01:00;;;;;;;6.20;2.60;;;;;;;22.23;33.63;100402.13;131175;1250;107569;-72
2023/05/14 12:04:06;;;;;;;5.50;2.80;;;;;;;22.26;33.47;100395.99;131048;1255;107548;-72
2023/05/14 12:07:14;;;;;;;4.00;2.80;;;;;;;22.27;33.22;100390.65;130958;1253;107395;-76
2023/05/14 12:10:21;;;;;;;4.70;2.60;;;;;;;22.30;33.05;100382.09;131159;1251;107530;-77
2023/05/14 12:13:29;;;;;;;4.60;2.50;;;;;;;22.42;33.45;100381.56;131313;1254;107496;-77
2023/05/14 12:16:34;;;;;;;4.70;2.50;;;;;;;22.55;33.31;100389.35;131146;1251;107365;-76
2023/05/14 12:19:43;;;;;;;6.00;2.50;;;;;;;22.63;32.70;100381.29;131222;1250;107339;-76
2023/05/14 12:22:48;;;;;;;4.10;2.40;;;;;;;22.69;33.14;100373.73;131161;1255;106421;-75
2023/05/14 12:25:54;;;;;;;5.20;2.40;;;;;;;22.79;33.13;100366.31;131252;1255;106710;-76
2023/05/14 12:29:02;;;;;;;5.20;2.60;;;;;;;22.85;32.84;100368.48;131306;1255;106662;-76
2023/05/14 12:32:10;;;;;;;3.80;2.80;;;;;;;22.90;32.95;100365.42;131179;1251;107510;-77
2023/05/14 12:35:16;;;;;;;5.40;2.40;;;;;;;23.01;32.97;100361.85;131742;1250;107540;-76
2023/05/14 12:38:21;;;;;;;6.30;2.80;;;;;;;23.12;32.76;100360.58;131239;1253;107561;-76
2023/05/14 12:41:27;;;;;;;6.00;2.60;;;;;;;23.21;32.76;100354.81;131119;1254;106527;-76
2023/05/14 12:44:32;;;;;;;3.40;2.50;;;;;;;23.28;32.33;100351.64;131086;1253;106556;-78
2023/05/14 12:47:38;;;;;;;3.80;2.70;;;;;;;23.24;32.18;100350.78;130997;1255;108792;-77
2023/05/14 12:50:44;;;;;;;3.70;2.50;;;;;;;23.18;32.37;100339.58;131060;1251;107522;-76
2023/05/14 12:53:51;;;;;;;4.30;2.80;;;;;;;23.17;32.22;100345.67;131231;1253;107252;-76
2023/05/14 12:56:56;;;;;;;4.50;2.50;;;;;;;23.21;32.05;100339.40;131076;1253;106780;-76
2023/05/14 13:00:05;;;;;;;4.70;2.50;;;;;;;23.28;32.41;100330.54;131048;1254;106751;-76
2023/05/14 13:03:11;;;;;;;4.90;2.60;;;;;;;23.33;32.27;100326.95;131080;1255;107570;-76
2023/05/14 13:06:16;;;;;;;4.10;2.60;;;;;;;23.36;31.98;100328.81;130958;1256;107407;-76
2023/05/14 13:09:22;;;;;;;4.90;2.60;;;;;;;23.40;32.31;100319.27;131020;1256;107742;-75
2023/05/14 13:12:28;;;;;;;4.60;2.70;;;;;;;23.48;32.45;100313.97;130999;1254;107525;-75
2023/05/14 13:15:35;;;;;;;4.30;2.40;;;;;;;23.59;32.19;100313.06;131015;1254;107485;-75
2023/05/14 13:18:41;;;;;;;5.70;2.90;;;;;;;23.69;32.26;100303.43;130959;1250;108126;-77
2023/05/14 13:21:46;;;;;;;3.40;2.40;;;;;;;23.74;32.21;100303.58;131009;1256;106852;-76
2023/05/14 13:24:51;;;;;;;3.70;2.50;;;;;;;23.68;31.75;100306.11;131039;1255;107527;-76
2023/05/14 13:27:57;;;;;;;3.80;2.50;;;;;;;23.51;31.37;100309.07;131104;1254;108346;-75
2023/05/14 13:31:08;;;;;;;2.90;2.20;;;;;;;23.33;31.79;100296.52;131114;1254;107459;-75
2023/05/14 13:34:14;;;;;;;3.40;2.60;;;;;;;23.26;32.13;100299.33;131260;1262;107653;-75
2023/05/14 13:37:19;;;;;;;6.50;2.30;;;;;;;23.18;31.74;100294.67;130868;1256;131972;-75
2023/05/14 13:40:25;;;;;;;5.00;2.50;;;;;;;23.10;31.86;100292.92;131149;1254;107426;-76
2023/05/14 13:43:32;;;;;;;3.60;2.40;;;;;;;23.08;31.91;100286.83;130975;1255;107591;-77
2023/05/14 13:46:37;;;;;;;6.10;2.40;;;;;;;23.05;31.87;100281.20;131125;1253;107497;-77
2023/05/14 13:49:43;;;;;;;3.40;2.00;;;;;;;23.01;31.95;100276.51;131163;1254;107376;-76
2023/05/14 13:52:48;;;;;;;7.20;2.70;;;;;;;22.98;31.95;100273.71;131178;1256;107540;-76
2023/05/14 13:55:56;;;;;;;3.80;2.40;;;;;;;22.99;31.90;100268.00;131033;1251;107470;-76
2023/05/14 13:59:02;;;;;;;3.70;2.50;;;;;;;23.04;32.19;100263.63;131054;1254;107524;-77
2023/05/14 14:02:08;;;;;;;4.30;2.50;;;;;;;23.09;32.13;100256.80;131087;1254;107587;-76